AKDT,Max TemperatureF,Mean TemperatureF,Min TemperatureF,Max Dew PointF,MeanDew PointF,Min DewpointF,Max Humidity, Mean Humidity, Min Humidity, Max Sea Level PressureIn, Mean Sea Level PressureIn, Min Sea Level PressureIn, Max VisibilityMiles, Mean VisibilityMiles, Min VisibilityMiles, Max Wind SpeedMPH, Mean Wind SpeedMPH, Max Gust SpeedMPH,PrecipitationIn, CloudCover, Events, WindDirDegrees
2011-10-1,48,37,26,34,30,25,100,81,56,29.75,29.69,29.62,10,10,2,6,1,,T,5,Fog-Snow,29
2011-10-2,57,46,35,35,28,25,79,54,32,29.60,29.52,29.41,10,10,10,7,5,,0.00,5,,52
2011-10-3,54,43,32,32,28,24,79,60,36,29.51,29.47,29.42,10,10,10,5,2,,0.00,6,,40
2011-10-4,44,36,27,33,29,26,92,81,60,29.61,29.58,29.52,10,10,10,6,1,,0.00,5,,6
2011-10-5,49,36,23,32,27,21,92,75,48,29.61,29.51,29.39,10,10,10,7,2,,0.00,4,,53
2011-10-6,52,41,29,32,27,23,82,63,33,29.50,29.41,29.37,10,10,10,6,3,,0.00,6,,48
2011-10-7,46,38,29,32,29,27,88,74,56,29.81,29.69,29.52,10,10,10,6,1,,0.00,6,,170
2011-10-8,50,39,28,32,29,26,92,74,50,29.86,29.80,29.70,10,10,10,9,2,,0.00,4,Fog,14
2011-10-9,48,39,29,29,28,26,82,68,48,29.70,29.66,29.64,10,10,10,9,6,,0.00,5,,360
2011-10-10,44,36,28,27,25,21,88,69,45,29.73,29.72,29.69,10,10,10,10,4,20,0.00,4,,38
2011-10-11,37,33,29,22,21,21,69,62,54,29.91,29.79,29.71,10,10,10,12,8,,0.00,6,,348
2011-10-12,33,26,18,24,21,17,93,84,66,30.05,30.01,29.92,10,10,5,6,1,,0.00,4,,71
2011-10-13,32,25,18,24,21,15,89,79,66,30.00,29.93,29.78,10,9,3,5,2,,T,6,Snow,31
2011-10-14,50,37,23,26,24,21,88,66,39,29.75,29.49,29.38,10,10,10,9,4,,0.00,6,,40
2011-10-15,46,37,28,30,27,25,88,71,46,29.69,29.52,29.41,10,10,7,6,3,,0.00,5,Snow,35
2011-10-16,35,32,29,32,31,28,100,93,81,29.84,29.76,29.68,6,4,0,4,0,,0.06,8,Fog-Snow,184
2011-10-17,33,32,31,32,30,28,96,92,81,29.96,29.91,29.83,10,4,1,6,1,,0.08,8,Snow,212
2011-10-18,32,30,28,30,28,27,96,91,85,29.85,29.72,29.66,10,7,2,6,2,,0.04,7,Snow,214
2011-10-19,29,24,19,27,24,18,96,90,81,29.80,29.76,29.71,10,5,2,7,4,,0.03,8,Snow,149
2011-10-20,30,23,15,23,18,13,93,87,72,29.77,29.73,29.68,10,10,10,5,1,,0.00,5,,42
2011-10-21,32,22,11,23,16,9,92,86,69,29.67,29.52,29.43,10,10,10,5,1,,0.00,5,,53
2011-10-22,26,18,10,19,14,9,93,87,74,29.64,29.52,29.43,10,8,0,5,1,,0.01,4,Fog-Snow,129
2011-10-23,28,23,18,23,19,14,93,86,78,29.72,29.69,29.65,10,9,5,5,1,,T,7,Snow,30
2011-10-24,35,24,12,27,19,12,96,87,72,29.66,29.58,29.41,10,10,10,9,2,,0.00,7,Fog,37
2011-10-25,45,37,28,29,26,23,82,69,42,29.39,29.14,28.93,10,10,10,10,6,,0.00,7,,28
2011-10-26,34,25,16,28,25,18,93,83,72,29.61,29.34,28.97,10,7,2,14,5,18,0.05,7,Snow,220
2011-10-27,28,19,10,19,15,9,92,86,75,29.66,29.61,29.49,10,10,10,7,3,,0.00,4,,50
2011-10-28,22,13,4,16,8,1,92,87,78,29.48,29.36,29.28,10,9,1,7,1,,0.00,4,Fog,40
2011-10-29,18,11,3,13,6,-1,92,85,80,29.34,29.24,29.20,10,10,10,6,1,,T,2,Fog,94
2011-10-30,17,10,3,13,8,1,96,86,79,29.78,29.60,29.32,10,6,2,5,1,,0.05,7,Snow,60
2011-10-31,20,9,-2,13,8,0,88,85,74,29.80,29.78,29.75,10,10,10,7,1,,T,3,Snow,33